createdAt,value
2022-09-22T00:29:10.541Z,0
2022-09-22T00:29:51.010Z,0
2022-09-22T00:30:31.517Z,0
2022-09-22T00:35:55.391Z,0
2022-09-22T00:36:35.911Z,0
2022-09-22T00:37:16.394Z,0
2022-09-22T00:37:56.821Z,0
2022-09-22T00:38:37.278Z,0
2022-09-22T00:39:17.756Z,0
2022-09-22T00:39:58.214Z,0
2022-09-22T00:40:38.792Z,0
2022-09-22T00:41:19.147Z,0
2022-09-22T00:41:59.642Z,0
2022-09-22T00:50:05.415Z,0
2022-09-22T00:50:45.866Z,0
2022-09-22T00:51:26.341Z,0
2022-09-22T00:52:06.910Z,0
2022-09-22T00:52:47.355Z,0
2022-09-22T00:53:27.841Z,0
2022-09-22T00:54:08.325Z,0
2022-09-22T00:54:48.836Z,0
2022-09-22T00:55:29.312Z,0
2022-09-22T00:56:09.798Z,0
2022-09-22T01:04:15.568Z,0
2022-09-22T01:07:54.835Z,0
2022-09-22T01:08:35.279Z,0
2022-09-22T01:09:15.758Z,0
2022-09-22T01:14:39.664Z,0
2022-09-22T01:15:20.208Z,0
2022-09-22T01:16:00.677Z,0
2022-09-22T01:16:41.141Z,0
2022-09-22T01:17:21.677Z,0
2022-09-22T01:18:02.142Z,0
2022-09-22T01:18:42.608Z,0
2022-09-22T01:19:23.092Z,0
2022-09-22T01:20:03.558Z,0
2022-09-22T01:20:44.093Z,0
2022-09-22T01:28:09.475Z,0
2022-09-22T01:28:49.952Z,0
2022-09-22T01:29:30.445Z,0
2022-09-22T01:30:10.919Z,0
2022-09-22T01:30:51.477Z,0
2022-09-22T01:31:31.971Z,0
2022-09-22T01:32:12.385Z,0
2022-09-22T01:32:52.845Z,0
2022-09-22T01:33:33.354Z,0
2022-09-22T01:34:13.761Z,0
2022-09-22T01:34:54.256Z,0
2022-09-22T01:42:19.542Z,0
2022-09-22T01:43:00.027Z,0
2022-09-22T01:43:40.545Z,0
2022-09-22T01:44:21.081Z,0
2022-09-22T01:45:01.555Z,0
2022-09-22T01:45:42.017Z,0
2022-09-22T01:46:22.603Z,0
2022-09-22T01:47:03.078Z,0
2022-09-22T01:47:43.595Z,0
2022-09-22T01:48:24.179Z,0
2022-09-22T01:55:49.436Z,0
2022-09-22T01:56:29.911Z,0
2022-09-22T01:57:10.374Z,0
2022-09-22T01:57:50.834Z,0
2022-09-22T01:58:31.291Z,0
2022-09-22T01:59:11.762Z,0
2022-09-22T01:59:52.221Z,0
2022-09-22T02:01:14.688Z,0
2022-09-22T02:01:54.082Z,0
2022-09-22T02:02:34.349Z,0
2022-09-22T02:09:59.596Z,0
2022-09-22T02:10:40.048Z,0
2022-09-22T02:11:20.519Z,0
2022-09-22T02:12:01.011Z,0
2022-09-22T02:12:41.511Z,0
2022-09-22T02:13:22.076Z,0
2022-09-22T02:14:02.516Z,0
2022-09-22T02:14:42.992Z,0
2022-09-22T02:15:23.493Z,0
2022-09-22T02:16:04.161Z,0
2022-09-22T02:23:29.472Z,0
2022-09-22T02:24:09.901Z,0
2022-09-22T02:24:50.412Z,0
2022-09-22T02:25:30.976Z,0
2022-09-22T02:26:11.409Z,0
2022-09-22T02:26:51.859Z,0
2022-09-22T02:27:32.324Z,0
2022-09-22T02:28:12.805Z,0
2022-09-22T02:28:53.290Z,0
2022-09-22T02:29:33.805Z,0
2022-09-22T02:30:14.322Z,0
2022-09-22T02:36:59.226Z,0
2022-09-22T02:37:39.702Z,0
2022-09-22T02:38:20.182Z,0
2022-09-22T02:39:00.640Z,0
2022-09-22T02:39:41.111Z,0
2022-09-22T02:40:21.709Z,0
2022-09-22T02:41:42.655Z,0
2022-09-22T02:42:23.093Z,0
2022-09-22T02:43:03.603Z,0
2022-09-22T02:43:44.062Z,0
2022-09-22T02:51:09.373Z,0
2022-09-22T02:51:49.915Z,0
2022-09-22T02:52:30.331Z,0
2022-09-22T02:53:10.800Z,0
2022-09-22T02:54:31.750Z,0
2022-09-22T02:55:12.235Z,0
2022-09-22T02:55:52.710Z,0
2022-09-22T02:56:33.209Z,0
2022-09-22T02:57:13.681Z,0
2022-09-22T02:57:54.172Z,0
2022-09-22T03:04:39.577Z,0
2022-09-22T03:05:20.033Z,0
2022-09-22T03:06:00.475Z,0
2022-09-22T03:06:41.531Z,0
2022-09-22T03:07:22.027Z,0
2022-09-22T03:08:02.508Z,0
2022-09-22T03:08:42.976Z,0
2022-09-22T03:09:23.496Z,0
2022-09-22T03:10:03.988Z,0
2022-09-22T03:17:29.359Z,0
2022-09-22T03:18:09.851Z,0
2022-09-22T03:18:50.344Z,0
2022-09-22T03:19:30.847Z,0
2022-09-22T03:20:11.274Z,0
2022-09-22T03:20:51.740Z,0
2022-09-22T03:21:32.194Z,0
2022-09-22T03:22:12.682Z,0
2022-09-22T03:22:53.147Z,0
2022-09-22T03:23:33.604Z,0
2022-09-22T03:24:14.087Z,0
2022-09-22T03:31:00.084Z,0
2022-09-22T03:31:40.012Z,0
2022-09-22T03:32:20.466Z,0
2022-09-22T03:33:00.967Z,0
2022-09-22T03:33:41.443Z,0
2022-09-22T03:34:21.888Z,0
2022-09-22T03:35:02.398Z,0
2022-09-22T03:35:42.884Z,0
2022-09-22T03:37:03.918Z,0
2022-09-22T03:44:29.305Z,0
2022-09-22T03:45:09.762Z,0
2022-09-22T03:45:50.279Z,0
2022-09-22T03:46:30.891Z,0
2022-09-22T03:47:11.300Z,0
2022-09-22T03:47:51.811Z,0
2022-09-22T03:48:32.272Z,0
2022-09-22T03:49:12.734Z,0
2022-09-22T03:49:53.206Z,0
2022-09-22T03:50:33.732Z,0
2022-09-22T03:51:14.180Z,0
2022-09-22T03:58:39.689Z,0
2022-09-22T03:59:20.219Z,0
2022-09-22T04:00:00.719Z,0
2022-09-22T04:00:41.243Z,0
2022-09-22T04:02:02.319Z,0
2022-09-22T04:02:42.775Z,0
2022-09-22T04:03:23.141Z,0
2022-09-22T04:04:03.686Z,0
2022-09-22T04:04:44.124Z,0
2022-09-22T04:14:27.991Z,0
2022-09-22T04:15:09.400Z,0
2022-09-22T04:15:49.856Z,0
2022-09-22T04:19:52.766Z,0
2022-09-22T04:20:33.305Z,0
2022-09-22T04:21:13.988Z,0
2022-09-22T04:21:57.122Z,0
2022-09-22T04:22:34.974Z,0
2022-09-22T04:23:15.481Z,0
2022-09-22T04:23:56.009Z,0
2022-09-22T04:24:36.476Z,0
2022-09-22T04:25:16.949Z,0
2022-09-22T04:25:57.496Z,0
2022-09-22T04:33:22.914Z,0
2022-09-22T04:34:07.455Z,0
2022-09-22T04:34:43.897Z,0
2022-09-22T04:35:24.390Z,0
2022-09-22T04:36:04.867Z,0
2022-09-22T04:36:45.568Z,0
2022-09-22T04:37:26.045Z,0
2022-09-22T04:38:06.532Z,0
2022-09-22T04:38:47.026Z,0
2022-09-22T04:39:27.482Z,0
2022-09-22T04:45:36.115Z,0
2022-09-22T04:46:13.590Z,0
2022-09-22T04:46:54.033Z,0
2022-09-22T04:47:34.561Z,0
2022-09-22T04:48:15.099Z,0
2022-09-22T04:48:55.726Z,0
2022-09-22T04:49:36.203Z,0
2022-09-22T04:50:16.701Z,0
2022-09-22T04:50:57.170Z,0
2022-09-22T04:51:37.708Z,0
2022-09-22T04:58:23.344Z,0
2022-09-22T04:59:03.047Z,0
2022-09-22T04:59:43.534Z,0
2022-09-22T05:00:24.058Z,0
2022-09-22T05:01:04.571Z,0
2022-09-22T05:01:45.134Z,0
2022-09-22T05:02:25.520Z,0
2022-09-22T05:03:06.052Z,0
2022-09-22T05:03:46.533Z,0
2022-09-22T05:04:27.059Z,0
2022-09-22T05:05:07.544Z,0
2022-09-22T05:11:49.926Z,0
2022-09-22T05:12:30.521Z,0
2022-09-22T05:13:10.960Z,0
2022-09-22T05:17:54.446Z,0
2022-09-22T05:18:35.026Z,0
2022-09-22T05:19:15.575Z,0
2022-09-22T05:19:56.028Z,0
2022-09-22T05:20:36.519Z,0
2022-09-22T05:21:17.039Z,0
2022-09-22T05:21:57.583Z,0
2022-09-22T05:22:40.047Z,5
2022-09-22T05:28:44.513Z,20
2022-09-22T05:29:27.865Z,25
2022-09-22T05:30:05.643Z,25
2022-09-22T05:30:46.190Z,25
2022-09-22T05:31:26.691Z,25
2022-09-22T05:32:07.192Z,30
2022-09-22T05:32:47.619Z,30
2022-09-22T05:33:28.270Z,30
2022-09-22T05:34:08.632Z,35
2022-09-22T05:41:41.107Z,50
2022-09-22T05:42:21.561Z,40
2022-09-22T05:43:02.087Z,30
2022-09-22T05:47:45.555Z,85
2022-09-22T05:48:30.330Z,105
2022-09-22T05:49:06.539Z,115
2022-09-22T05:49:47.076Z,115
2022-09-22T05:50:27.567Z,120
2022-09-22T05:51:08.078Z,120
2022-09-22T05:51:48.608Z,125
2022-09-22T05:52:29.058Z,130
2022-09-22T05:53:09.518Z,135
2022-09-22T05:53:50.108Z,140
2022-09-22T06:31:45.797Z,515
2022-09-22T06:32:27.634Z,390
2022-09-22T06:33:08.046Z,260
2022-09-22T06:35:09.827Z,170
2022-09-22T06:35:51.467Z,160
2022-09-22T06:36:32.591Z,155
2022-09-22T06:37:13.175Z,160
2022-09-22T06:37:53.882Z,155
2022-09-22T06:38:34.436Z,155
2022-09-22T06:43:19.682Z,155
2022-09-22T06:44:00.632Z,150
2022-09-22T06:44:40.954Z,150
2022-09-22T06:45:21.450Z,150
2022-09-22T06:46:02.083Z,155
2022-09-22T06:46:42.561Z,155
2022-09-22T06:47:23.105Z,155
2022-09-22T06:48:07.635Z,155
2022-09-22T06:48:44.196Z,155
2022-09-22T06:54:51.940Z,150
2022-09-22T06:55:30.727Z,150
2022-09-22T06:56:11.268Z,145
2022-09-22T06:56:51.934Z,145
2022-09-22T06:57:32.300Z,145
2022-09-22T06:58:12.770Z,145
2022-09-22T06:59:09.168Z,145
2022-09-22T06:59:49.187Z,145
2022-09-22T07:00:29.538Z,145
2022-09-22T07:01:10.280Z,145
2022-09-22T07:01:50.806Z,145
2022-09-22T07:02:31.298Z,145
2022-09-22T07:03:11.639Z,145
2022-09-22T07:03:52.118Z,145
2022-09-22T07:04:32.820Z,140
2022-09-22T07:05:13.361Z,140
2022-09-22T07:05:54.050Z,140
2022-09-22T07:06:34.508Z,140
2022-09-22T07:10:53.479Z,130
2022-09-22T07:11:39.016Z,125
2022-09-22T07:12:16.174Z,125
2022-09-22T07:12:56.857Z,120
2022-09-22T07:13:37.329Z,120
2022-09-22T07:14:17.967Z,120
2022-09-22T07:14:58.516Z,120
2022-09-22T07:22:38.754Z,90
2022-09-22T07:23:19.316Z,90
2022-09-22T07:24:00.420Z,90
2022-09-22T07:24:44.438Z,90
2022-09-22T07:25:24.975Z,90
2022-09-22T07:26:05.559Z,90
2022-09-22T07:31:03.662Z,80
2022-09-22T07:31:44.798Z,80
2022-09-22T07:32:28.201Z,75
2022-09-22T07:33:08.914Z,75
2022-09-22T07:33:49.357Z,75
2022-09-22T07:34:29.999Z,75
2022-09-22T07:35:10.450Z,75
2022-09-22T07:35:51.045Z,70
2022-09-22T07:36:32.939Z,70
2022-09-22T07:40:56.914Z,65
2022-09-22T07:41:37.546Z,65
2022-09-22T07:42:18.227Z,65
2022-09-22T07:45:41.413Z,60
2022-09-22T07:46:22.047Z,60
2022-09-22T07:47:02.640Z,60
2022-09-22T07:47:44.070Z,60
2022-09-22T07:51:05.364Z,60
2022-09-22T07:51:46.170Z,60
2022-09-22T07:52:28.321Z,55
2022-09-22T07:53:09.848Z,55
2022-09-22T07:53:50.490Z,55
2022-09-22T07:54:30.922Z,55
2022-09-22T07:55:11.415Z,55
2022-09-22T07:55:52.659Z,55
2022-09-22T07:58:37.944Z,55
2022-09-22T08:00:01.724Z,55
2022-09-22T08:00:42.408Z,55
2022-09-22T08:01:23.797Z,55
2022-09-22T08:06:08.959Z,55
2022-09-22T08:06:49.698Z,55
2022-09-22T08:10:07.426Z,55
2022-09-22T08:10:49.457Z,55
2022-09-22T08:11:29.753Z,55
2022-09-22T08:12:11.769Z,55
2022-09-22T08:12:52.525Z,55
2022-09-22T08:13:36.259Z,55
2022-09-22T08:18:34.155Z,55
2022-09-22T08:19:14.569Z,55
2022-09-22T08:19:55.059Z,55
2022-09-22T08:25:24.417Z,55
2022-09-22T08:26:05.087Z,55
2022-09-22T08:26:48.197Z,55
2022-09-22T08:27:27.503Z,55
2022-09-22T08:28:08.447Z,50
2022-09-22T08:28:49.244Z,50
2022-09-22T08:29:29.873Z,50
2022-09-22T08:30:10.289Z,50
2022-09-22T08:30:53.495Z,50
2022-09-22T08:31:32.782Z,50
2022-09-22T08:32:13.292Z,50
2022-09-22T08:36:19.141Z,50
2022-09-22T08:36:59.928Z,50
2022-09-22T08:37:40.660Z,50
2022-09-22T08:38:21.233Z,50
2022-09-22T08:39:01.969Z,50
2022-09-22T08:39:42.481Z,50
2022-09-22T08:40:23.168Z,50
2022-09-22T08:45:48.563Z,50
2022-09-22T08:46:29.088Z,50
2022-09-22T08:47:09.619Z,50
2022-09-22T08:47:50.153Z,50
2022-09-22T08:48:30.721Z,50
2022-09-22T08:49:11.421Z,50
2022-09-22T08:49:51.903Z,50
2022-09-22T08:50:32.407Z,50
2022-09-22T08:51:12.923Z,50
2022-09-22T08:55:31.900Z,50
2022-09-22T08:56:12.372Z,50
2022-09-22T08:56:53.035Z,50
2022-09-22T09:00:56.382Z,50
2022-09-22T09:01:37.018Z,50
2022-09-22T09:02:20.922Z,50
2022-09-22T09:08:27.144Z,50
2022-09-22T09:09:07.746Z,50
2022-09-22T09:09:48.268Z,50
2022-09-22T09:10:28.998Z,50
2022-09-22T09:11:09.503Z,50
2022-09-22T09:11:50.000Z,50
2022-09-22T09:12:30.609Z,50
2022-09-22T09:13:11.293Z,50
2022-09-22T09:19:16.390Z,50
2022-09-22T09:19:56.862Z,50
2022-09-22T09:20:37.595Z,50
2022-09-22T09:21:18.111Z,50
2022-09-22T09:21:58.691Z,50
2022-09-22T09:22:39.297Z,50
2022-09-22T09:23:19.851Z,50
2022-09-22T09:29:35.460Z,50
2022-09-22T09:33:08.910Z,50
2022-09-22T09:33:49.604Z,50
2022-09-22T09:34:30.613Z,50
2022-09-22T09:35:11.067Z,50
2022-09-22T09:35:53.246Z,50
2022-09-22T09:36:33.312Z,50
2022-09-22T09:37:13.018Z,50
2022-09-22T09:37:53.991Z,50
2022-09-22T09:38:35.712Z,50
2022-09-22T09:39:16.830Z,50
2022-09-22T09:42:42.867Z,50
2022-09-22T09:43:26.296Z,50
2022-09-22T09:44:06.958Z,50
2022-09-22T09:52:46.780Z,45
2022-09-22T09:53:27.095Z,45
2022-09-22T09:57:04.491Z,45
2022-09-22T09:57:45.028Z,45
2022-09-22T09:58:25.591Z,45
2022-09-22T10:01:50.436Z,45
2022-09-22T10:02:30.855Z,45
2022-09-22T10:03:10.565Z,45
2022-09-22T10:03:51.247Z,45
2022-09-22T10:04:31.671Z,45
2022-09-22T10:05:12.221Z,45
2022-09-22T10:05:52.743Z,45
2022-09-22T10:12:39.181Z,45
2022-09-22T10:13:21.359Z,45
2022-09-22T10:14:01.524Z,45
2022-09-22T10:14:42.376Z,45
2022-09-22T10:15:22.857Z,45
2022-09-22T10:16:03.805Z,45
2022-09-22T10:21:28.719Z,45
2022-09-22T10:22:09.718Z,45
2022-09-22T10:22:50.064Z,45
2022-09-22T10:23:30.538Z,45
2022-09-22T10:24:11.869Z,45
2022-09-22T10:24:51.863Z,45
2022-09-22T10:25:32.724Z,45
2022-09-22T10:33:50.140Z,45
2022-09-22T10:34:33.835Z,45
2022-09-22T10:35:14.484Z,45
2022-09-22T10:35:54.995Z,45
2022-09-22T10:36:36.310Z,45
2022-09-22T10:37:17.859Z,45
2022-09-22T10:37:58.443Z,45
2022-09-22T10:40:44.605Z,45
2022-09-22T10:44:44.040Z,45
2022-09-22T10:45:07.079Z,45
2022-09-22T10:45:47.478Z,45
2022-09-22T10:48:32.480Z,45
2022-09-22T10:49:13.075Z,45
2022-09-22T10:49:54.208Z,45
2022-09-22T10:51:16.219Z,45
2022-09-22T10:55:23.224Z,45
2022-09-22T10:56:03.026Z,45
2022-09-22T11:01:37.229Z,45
2022-09-22T11:02:17.728Z,45
2022-09-22T11:02:58.178Z,45
2022-09-22T11:07:02.073Z,45
2022-09-22T11:07:42.694Z,45
2022-09-22T11:08:23.638Z,45
2022-09-22T11:09:04.066Z,45
2022-09-22T11:09:44.734Z,45
2022-09-22T11:10:25.333Z,45
2022-09-22T11:11:46.752Z,45
2022-09-22T11:18:49.875Z,45
2022-09-22T11:19:31.158Z,45
2022-09-22T11:20:11.803Z,45
2022-09-22T11:22:54.400Z,45
2022-09-22T11:23:35.770Z,45
2022-09-22T11:24:16.432Z,45
2022-09-22T11:24:57.004Z,45
2022-09-22T11:25:37.645Z,45
2022-09-22T11:26:18.330Z,45
2022-09-22T11:26:58.939Z,45
2022-09-22T11:33:04.300Z,45
2022-09-22T11:33:44.746Z,45
2022-09-22T11:34:25.246Z,45
2022-09-22T11:35:06.884Z,45
2022-09-22T11:35:46.904Z,40
2022-09-22T11:36:27.406Z,45
2022-09-22T11:37:08.109Z,45
2022-09-22T11:37:48.670Z,45
2022-09-22T11:41:14.085Z,45
2022-09-22T11:41:54.601Z,45
2022-09-22T11:42:35.663Z,45
2022-09-22T11:43:16.252Z,40
2022-09-22T11:43:58.530Z,45
2022-09-22T11:48:05.138Z,40
2022-09-22T11:48:45.701Z,40
2022-09-22T11:49:26.276Z,45
2022-09-22T11:50:06.897Z,45
2022-09-22T11:50:47.454Z,45
2022-09-22T11:51:27.953Z,45
2022-09-22T11:52:49.120Z,40
2022-09-22T12:32:21.332Z,40
2022-09-22T12:33:01.830Z,40
2022-09-22T12:33:42.674Z,40
2022-09-22T12:34:23.247Z,40
2022-09-22T12:35:03.798Z,40
2022-09-22T12:35:44.318Z,40
2022-09-22T12:36:24.928Z,40
2022-09-22T12:44:09.588Z,40
2022-09-22T12:44:50.270Z,40
2022-09-22T12:45:30.867Z,40
2022-09-22T12:49:34.590Z,40
2022-09-22T12:50:15.112Z,40
2022-09-22T12:50:55.587Z,40
2022-09-22T12:52:16.728Z,40
2022-09-22T12:52:57.199Z,40
2022-09-22T12:53:41.487Z,40
2022-09-22T12:54:18.228Z,40
2022-09-22T13:02:17.907Z,40
2022-09-22T13:02:58.614Z,40
2022-09-22T13:03:40.222Z,40
2022-09-22T13:08:15.988Z,20
2022-09-22T13:08:56.421Z,40
2022-09-22T13:09:36.862Z,35
2022-09-22T13:13:40.036Z,35
2022-09-22T13:14:20.581Z,40
2022-09-22T13:15:01.794Z,35
2022-09-22T13:15:43.019Z,35
2022-09-22T13:16:23.572Z,35
2022-09-22T13:17:04.162Z,35
2022-09-22T13:17:44.667Z,35
2022-09-22T13:22:29.731Z,40
2022-09-22T13:23:10.331Z,40
2022-09-22T13:23:50.852Z,40
2022-09-22T13:24:31.447Z,40
2022-09-22T13:25:12.085Z,40
2022-09-22T13:25:52.667Z,35
2022-09-22T13:26:33.407Z,35
2022-09-22T13:27:13.886Z,35
2022-09-22T13:27:54.398Z,35
2022-09-22T13:31:19.989Z,35
2022-09-22T13:32:04.058Z,35
2022-09-22T13:32:43.103Z,35
2022-09-22T13:33:23.644Z,35
2022-09-22T13:34:04.363Z,35
2022-09-22T13:37:45.466Z,35
2022-09-22T13:41:17.135Z,35
2022-09-22T13:41:57.683Z,35
2022-09-22T13:42:39.313Z,35
2022-09-22T13:44:01.229Z,35
2022-09-22T13:44:41.808Z,35
2022-09-22T13:45:22.933Z,35
2022-09-22T13:46:03.525Z,35
2022-09-22T13:46:44.162Z,35
2022-09-22T13:47:24.902Z,35
2022-09-22T13:48:08.283Z,35
2022-09-22T13:48:45.907Z,35
2022-09-22T13:55:31.507Z,35
2022-09-22T13:56:12.363Z,35
2022-09-22T13:56:52.899Z,35
2022-09-22T13:57:34.329Z,35
2022-09-22T13:58:14.920Z,35
2022-09-22T13:58:55.458Z,35
2022-09-22T13:59:35.892Z,35
2022-09-22T14:05:49.828Z,35
2022-09-22T14:06:21.870Z,35
2022-09-22T14:07:02.376Z,35
2022-09-22T14:07:55.501Z,35
2022-09-22T14:08:23.527Z,35
2022-09-22T14:09:04.228Z,35
2022-09-22T14:09:44.881Z,35
2022-09-22T14:10:25.593Z,35
2022-09-22T14:11:06.027Z,35
2022-09-22T14:14:31.622Z,35
2022-09-22T14:15:15.347Z,35
2022-09-22T14:15:55.965Z,35
2022-09-22T14:22:41.408Z,35
2022-09-22T14:23:22.020Z,35
2022-09-22T14:24:02.537Z,35
2022-09-22T14:24:42.999Z,35
2022-09-22T14:25:23.710Z,35
2022-09-22T14:26:04.198Z,35
2022-09-22T14:27:25.314Z,35
2022-09-22T14:28:06.014Z,35
2022-09-22T14:33:31.582Z,35
2022-09-22T14:34:12.081Z,35
2022-09-22T14:34:52.680Z,35
2022-09-22T14:35:33.192Z,35
2022-09-22T14:36:14.013Z,35
2022-09-22T14:36:54.461Z,35
2022-09-22T14:38:19.895Z,35
2022-09-22T14:39:07.944Z,35
2022-09-22T14:45:01.634Z,35
2022-09-22T14:45:42.181Z,35
2022-09-22T14:46:22.745Z,35
2022-09-22T14:47:03.645Z,35
2022-09-22T14:47:43.859Z,35
2022-09-22T14:48:24.341Z,35
2022-09-22T14:49:04.812Z,35
2022-09-22T14:49:45.439Z,35
2022-09-22T14:50:26.028Z,35
2022-09-22T14:57:51.688Z,30
2022-09-22T14:58:32.202Z,30
2022-09-22T14:59:13.778Z,30
2022-09-22T14:59:53.516Z,30
2022-09-22T15:00:33.983Z,30
2022-09-22T15:01:14.694Z,30
2022-09-22T15:01:55.031Z,30
2022-09-22T15:02:35.632Z,35
2022-09-22T15:03:16.295Z,35
2022-09-22T15:06:41.291Z,35
2022-09-22T15:07:21.974Z,35
2022-09-22T15:08:02.733Z,35
2022-09-22T15:08:43.227Z,35
2022-09-22T15:09:24.570Z,30
2022-09-22T15:10:45.591Z,30
2022-09-22T15:17:33.303Z,25
2022-09-22T15:18:13.930Z,25
2022-09-22T15:18:54.427Z,25
2022-09-22T15:19:34.913Z,25
2022-09-22T15:20:15.520Z,25
2022-09-22T15:20:55.985Z,25
2022-09-22T15:27:41.776Z,25
2022-09-22T15:28:22.509Z,25
2022-09-22T15:29:03.051Z,25
2022-09-22T15:29:43.554Z,25
2022-09-22T15:30:24.077Z,25
2022-09-22T15:31:04.762Z,25
2022-09-22T15:31:45.297Z,25
2022-09-22T15:32:25.751Z,25
2022-09-22T15:39:14.125Z,25
2022-09-22T15:44:01.346Z,25
2022-09-22T15:44:41.833Z,25
2022-09-22T15:45:22.284Z,25
2022-09-22T15:46:02.833Z,25
2022-09-22T15:46:43.373Z,20
2022-09-22T15:47:23.969Z,20
2022-09-22T15:48:04.500Z,20
2022-09-22T15:49:25.549Z,20
2022-09-22T15:50:06.199Z,20
2022-09-22T15:56:11.362Z,20
2022-09-22T15:56:51.961Z,20
2022-09-22T15:57:32.514Z,20
2022-09-22T15:58:12.978Z,20
2022-09-22T15:58:53.564Z,20
2022-09-22T15:59:34.018Z,20
2022-09-22T16:00:14.536Z,20
2022-09-22T16:00:55.159Z,20
2022-09-22T16:01:35.603Z,20
2022-09-22T16:02:16.127Z,20
2022-09-22T16:07:41.865Z,20
2022-09-22T16:08:22.425Z,20
2022-09-22T16:09:02.886Z,20
2022-09-22T16:09:43.449Z,20
2022-09-22T16:10:23.982Z,20
2022-09-22T16:11:04.708Z,15
2022-09-22T16:11:45.361Z,15
2022-09-22T16:12:25.815Z,15
2022-09-22T16:13:06.363Z,15
2022-09-22T16:18:31.596Z,15
2022-09-22T16:19:12.166Z,15
2022-09-22T16:19:52.880Z,15
2022-09-22T16:20:34.606Z,15
2022-09-22T16:21:15.646Z,15
2022-09-22T16:21:56.197Z,15
2022-09-22T16:27:21.722Z,15
2022-09-22T16:28:02.226Z,15
2022-09-22T16:28:43.915Z,15
2022-09-22T16:29:24.470Z,15
2022-09-22T16:30:04.983Z,15
2022-09-22T16:30:45.813Z,15
2022-09-22T16:31:26.385Z,15
2022-09-22T16:36:51.555Z,10
2022-09-22T16:37:32.350Z,10
2022-09-22T16:38:13.882Z,10
2022-09-22T16:38:54.254Z,10
2022-09-22T16:39:35.412Z,10
2022-09-22T16:40:15.882Z,10
2022-09-22T16:43:43.859Z,10
2022-09-22T16:44:24.634Z,10
2022-09-22T16:45:05.349Z,10
2022-09-22T16:45:46.061Z,10
2022-09-22T16:51:11.439Z,5
2022-09-22T16:51:52.340Z,5
2022-09-22T16:52:32.898Z,5
2022-09-22T16:53:13.575Z,5
2022-09-22T16:53:54.009Z,5
2022-09-22T16:54:35.125Z,5
2022-09-22T16:55:16.034Z,5
2022-09-22T17:02:01.908Z,5
2022-09-22T17:02:42.441Z,5
2022-09-22T17:03:23.241Z,5
2022-09-22T17:04:03.858Z,5
2022-09-22T17:04:44.555Z,5
2022-09-22T17:05:25.057Z,5
2022-09-22T17:06:05.695Z,5
2022-09-22T17:06:46.616Z,5
2022-09-22T17:12:11.915Z,0
2022-09-22T17:12:52.730Z,0
2022-09-22T17:13:33.104Z,0
2022-09-22T17:14:13.703Z,0
2022-09-22T17:14:54.525Z,0
2022-09-22T17:15:35.066Z,0
2022-09-22T17:16:15.504Z,0
2022-09-22T17:16:56.349Z,0
2022-09-22T17:22:21.577Z,0
2022-09-22T17:23:02.555Z,0
2022-09-22T17:23:43.064Z,0
2022-09-22T17:24:23.832Z,0
2022-09-22T17:25:04.569Z,0
2022-09-22T17:25:45.464Z,0
2022-09-22T17:31:12.068Z,0
2022-09-22T17:31:52.268Z,0
2022-09-22T17:32:33.049Z,0
2022-09-22T17:33:13.744Z,0
2022-09-22T17:33:54.213Z,0
2022-09-22T17:34:35.630Z,0
2022-09-22T17:35:16.129Z,0
2022-09-22T17:41:21.840Z,0
2022-09-22T17:42:02.455Z,0
2022-09-22T17:42:42.974Z,0
2022-09-22T17:43:23.956Z,0
2022-09-22T17:44:04.333Z,0
2022-09-22T17:44:44.965Z,0
2022-09-22T17:45:25.680Z,0
2022-09-22T17:47:53.949Z,0
2022-09-22T17:48:34.591Z,0
2022-09-22T17:49:14.984Z,0
2022-09-22T17:53:18.663Z,0
2022-09-22T17:53:59.120Z,0
2022-09-22T18:34:30.407Z,0
2022-09-22T18:35:11.195Z,0
2022-09-22T18:35:51.931Z,0
2022-09-22T18:39:55.138Z,0
2022-09-22T18:40:35.631Z,0
2022-09-22T18:41:19.677Z,0
2022-09-22T18:41:56.524Z,0
2022-09-22T18:42:37.048Z,0
2022-09-22T18:43:17.863Z,0
2022-09-22T18:43:58.293Z,0
2022-09-22T18:44:38.776Z,0
2022-09-22T18:45:19.273Z,0
2022-09-22T18:45:59.853Z,0
2022-09-22T18:52:44.892Z,0
2022-09-22T18:53:25.378Z,0
2022-09-22T18:54:05.905Z,0
2022-09-22T18:54:46.362Z,0
2022-09-22T18:55:26.855Z,0
2022-09-22T18:56:07.362Z,0
2022-09-22T18:56:47.842Z,0
2022-09-22T18:57:28.366Z,0
2022-09-22T18:58:08.822Z,0
2022-09-22T18:58:49.303Z,0
2022-09-22T19:02:28.487Z,0
2022-09-22T19:03:08.873Z,0
2022-09-22T19:03:49.400Z,0
2022-09-22T19:09:13.259Z,0
2022-09-22T19:09:53.765Z,0
2022-09-22T19:10:34.264Z,0
2022-09-22T19:11:15.268Z,0
2022-09-22T19:11:55.301Z,0
2022-09-22T19:12:35.763Z,0
2022-09-22T19:13:16.316Z,0
2022-09-22T19:13:56.809Z,0
2022-09-22T19:14:37.320Z,0
2022-09-22T19:15:17.806Z,0
2022-09-22T19:22:03.893Z,0
2022-09-22T19:22:45.174Z,0
2022-09-22T19:23:25.638Z,0
2022-09-22T19:24:06.367Z,0
2022-09-22T19:24:46.630Z,0
2022-09-22T19:25:27.137Z,0
2022-09-22T19:26:07.590Z,0
2022-09-22T19:26:48.160Z,0
2022-09-22T19:31:51.216Z,0
2022-09-22T19:32:31.737Z,0
2022-09-22T19:33:12.432Z,0
2022-09-22T19:35:14.083Z,0
2022-09-22T19:35:55.296Z,0
2022-09-22T19:36:35.531Z,0
2022-09-22T19:37:16.019Z,0
2022-09-22T19:37:56.812Z,0
2022-09-22T19:39:18.785Z,0
2022-09-22T19:45:24.362Z,0
2022-09-22T19:46:05.035Z,0
2022-09-22T19:46:45.541Z,0
2022-09-22T19:47:26.170Z,0
2022-09-22T19:48:06.691Z,0
2022-09-22T19:48:47.210Z,0
2022-09-22T19:49:27.700Z,0
2022-09-22T19:50:08.397Z,0
2022-09-22T19:50:49.089Z,0
2022-09-22T19:58:14.297Z,0
2022-09-22T19:58:54.851Z,0
2022-09-22T19:59:35.318Z,0
2022-09-22T20:00:15.796Z,0
2022-09-22T20:00:56.301Z,0
2022-09-22T20:01:36.886Z,0
2022-09-22T20:02:17.279Z,0
2022-09-22T20:02:57.875Z,0
2022-09-22T20:04:18.845Z,0
2022-09-22T20:11:44.246Z,0
2022-09-22T20:12:24.766Z,0
2022-09-22T20:13:05.290Z,0
2022-09-22T20:13:45.815Z,0
2022-09-22T20:14:26.382Z,0
2022-09-22T20:15:06.826Z,0
2022-09-22T20:15:47.416Z,0
2022-09-22T20:17:08.470Z,0
2022-09-22T20:17:48.964Z,0
2022-09-22T20:25:14.326Z,0
2022-09-22T20:25:54.861Z,0
2022-09-22T20:26:35.379Z,0
2022-09-22T20:27:15.857Z,0
2022-09-22T20:27:56.318Z,0
2022-09-22T20:28:36.842Z,0
2022-09-22T20:29:17.285Z,0
2022-09-22T20:29:57.858Z,0
2022-09-22T20:30:38.352Z,0
2022-09-22T20:31:18.910Z,0
2022-09-22T20:34:37.506Z,0
2022-09-22T20:35:18.043Z,0
2022-09-22T20:35:58.588Z,0
2022-09-22T20:41:22.391Z,0
2022-09-22T20:42:02.857Z,0
2022-09-22T20:42:43.342Z,0
2022-09-22T20:43:32.284Z,0
2022-09-22T20:44:52.652Z,0
2022-09-22T20:45:33.207Z,0
2022-09-22T20:46:13.719Z,0
2022-09-22T20:46:54.177Z,0
2022-09-22T20:47:34.681Z,0
2022-09-22T20:48:15.151Z,0
2022-09-22T20:48:55.739Z,0
2022-09-22T20:49:36.254Z,0
2022-09-22T20:50:16.717Z,0
2022-09-22T20:50:57.201Z,0
2022-09-22T20:57:42.189Z,0
2022-09-22T20:58:22.631Z,0
2022-09-22T20:59:03.211Z,0
2022-09-22T20:59:43.680Z,0
2022-09-22T21:00:24.150Z,0
2022-09-22T21:01:04.678Z,0
2022-09-22T21:01:45.596Z,0
2022-09-22T21:02:26.127Z,0
2022-09-22T21:03:06.637Z,0
2022-09-22T21:03:47.080Z,0
2022-09-22T21:07:16.534Z,0
2022-09-22T21:07:57.760Z,0
2022-09-22T21:08:38.614Z,0
2022-09-22T21:10:41.577Z,0
2022-09-22T21:11:22.529Z,0
2022-09-22T21:12:04.183Z,0
2022-09-22T21:12:45.362Z,0
2022-09-22T21:16:51.149Z,0
2022-09-22T21:17:32.208Z,0
2022-09-22T21:18:13.194Z,0
2022-09-22T21:18:54.193Z,0
2022-09-22T21:19:35.135Z,0
2022-09-22T21:23:41.338Z,0
2022-09-22T21:24:22.303Z,0
2022-09-22T21:25:03.315Z,0
2022-09-22T21:25:44.284Z,0
2022-09-22T21:26:25.273Z,0
2022-09-22T21:30:25.027Z,0
2022-09-22T21:31:05.618Z,0
2022-09-22T21:31:46.095Z,0
2022-09-22T21:37:09.903Z,0
2022-09-22T21:37:50.404Z,0
2022-09-22T21:38:30.875Z,0
2022-09-22T21:39:51.883Z,0
2022-09-22T21:40:32.456Z,0
2022-09-22T21:41:12.881Z,0
2022-09-22T21:41:53.370Z,0
2022-09-22T21:42:33.826Z,0
2022-09-22T21:43:14.322Z,0
2022-09-22T21:49:59.704Z,0
2022-09-22T21:50:40.190Z,0
2022-09-22T21:51:20.712Z,0
2022-09-22T21:52:01.197Z,0
2022-09-22T21:52:41.698Z,0
2022-09-22T21:53:22.172Z,0
2022-09-22T21:54:02.692Z,0
2022-09-22T21:54:43.167Z,0
2022-09-22T21:55:23.655Z,0
2022-09-22T21:56:04.153Z,0
2022-09-22T22:04:10.923Z,0
2022-09-22T22:04:51.235Z,0
2022-09-22T22:05:31.707Z,0
2022-09-22T22:06:12.200Z,0
2022-09-22T22:06:52.685Z,0
2022-09-22T22:07:33.252Z,0
2022-09-22T22:08:13.715Z,0
2022-09-22T22:08:54.249Z,0
2022-09-22T22:09:34.735Z,0
2022-09-22T22:17:00.103Z,0
2022-09-22T22:17:40.569Z,0
2022-09-22T22:18:21.074Z,0
2022-09-22T22:19:01.594Z,0
2022-09-22T22:19:42.112Z,0
2022-09-22T22:20:22.623Z,0
2022-09-22T22:21:03.038Z,0
2022-09-22T22:21:43.512Z,0
2022-09-22T22:22:24.050Z,0